Time;durP1;ratioP1;P1;durP2;ratioP2;P2;SDS_P1;SDS_P2;PMS_P1;PMS_P2;Temp;Humidity;BMP_temperature;BMP_pressure;BME280_temperature;BME280_humidity;BME280_pressure;Samples;Min_cycle;Max_cycle;Signal;HPM_P1;HPM_P2
2023/01/17 00:01:59;;;;;;;8.15;6.25;;;;;;;;;;5090067;28;20178;-47
2023/01/17 00:09:57;;;;;;;9.52;6.43;;;;;;;;;;5082689;28;20217;-46
2023/01/17 00:12:25;;;;;;;7.95;7.15;;;;;;;;;;5091366;28;20238;-46
2023/01/17 00:14:52;;;;;;;10.07;6.53;;;;;;;;;;5084626;28;20185;-47
2023/01/17 00:17:18;;;;;;;9.57;7.63;;;;;;;;;;5082911;28;20260;-47
2023/01/17 01:34:36;;;;;;;9.07;6.43;;;;;;;;;;5084830;28;20239;-45
2023/01/17 01:37:02;;;;;;;7.00;6.30;;;;;;;;;;5083609;28;20193;-48
2023/01/17 01:39:28;;;;;;;5.73;5.07;;;;;;;;;;5080916;28;20408;-45
2023/01/17 01:41:54;;;;;;;5.50;4.73;;;;;;;;;;5084543;28;20405;-46
2023/01/17 01:44:39;;;;;;;4.43;4.03;;;;;;;;;;5089278;28;20450;-46
2023/01/17 01:47:05;;;;;;;4.22;3.92;;;;;;;;;;5088350;28;20488;-46
2023/01/17 01:49:32;;;;;;;4.60;3.93;;;;;;;;;;5084141;28;20668;-46
2023/01/17 01:51:59;;;;;;;4.07;3.53;;;;;;;;;;5085879;28;20408;-46
2023/01/17 01:54:30;;;;;;;2.42;2.22;;;;;;;;;;5083984;28;20182;-46
2023/01/17 01:56:57;;;;;;;5.63;3.60;;;;;;;;;;5083494;28;20198;-46
2023/01/17 01:59:23;;;;;;;6.50;3.53;;;;;;;;;;5090662;28;20185;-46
2023/01/17 02:01:51;;;;;;;3.97;3.63;;;;;;;;;;5085674;28;20681;-47
2023/01/17 02:04:18;;;;;;;4.32;3.92;;;;;;;;;;5088191;28;20637;-46
2023/01/17 02:06:49;;;;;;;4.18;3.72;;;;;;;;;;5086328;28;20282;-46
2023/01/17 02:09:16;;;;;;;5.95;3.85;;;;;;;;;;5085586;28;20226;-49
2023/01/17 02:11:43;;;;;;;10.13;3.55;;;;;;;;;;5085296;28;20188;-46
2023/01/17 02:14:14;;;;;;;5.57;3.95;;;;;;;;;;5083858;28;20203;-49
2023/01/17 02:16:42;;;;;;;3.20;2.60;;;;;;;;;;5082934;28;20215;-46
2023/01/17 02:19:35;;;;;;;3.05;2.70;;;;;;;;;;5085221;28;20190;-47
2023/01/17 02:22:21;;;;;;;4.15;3.67;;;;;;;;;;5087307;28;20174;-46
2023/01/17 02:24:59;;;;;;;2.40;2.20;;;;;;;;;;5063378;28;20184;-48
2023/01/17 02:27:26;;;;;;;4.25;3.85;;;;;;;;;;5089573;28;20190;-46
2023/01/17 02:29:55;;;;;;;5.20;4.70;;;;;;;;;;5085263;28;20661;-49
2023/01/17 02:32:27;;;;;;;5.38;4.95;;;;;;;;;;5088370;28;20268;-46
2023/01/17 02:35:08;;;;;;;4.20;3.80;;;;;;;;;;5081564;28;20171;-47
2023/01/17 02:37:49;;;;;;;5.97;5.35;;;;;;;;;;5077689;28;20272;-47
2023/01/17 02:40:19;;;;;;;6.70;5.10;;;;;;;;;;5078056;28;20200;-49
2023/01/17 02:42:50;;;;;;;5.00;4.50;;;;;;;;;;5083381;28;20174;-49
2023/01/17 02:45:17;;;;;;;6.93;4.45;;;;;;;;;;5090953;28;20182;-48
2023/01/17 02:47:43;;;;;;;5.18;4.70;;;;;;;;;;5085522;28;20197;-49
2023/01/17 02:50:11;;;;;;;9.25;4.78;;;;;;;;;;5089166;28;20563;-46
2023/01/17 02:52:43;;;;;;;5.78;5.07;;;;;;;;;;5083268;28;20262;-46
2023/01/17 02:55:12;;;;;;;5.28;4.78;;;;;;;;;;5088317;28;20180;-46
2023/01/17 02:57:53;;;;;;;2.95;2.70;;;;;;;;;;5082817;28;20203;-48
2023/01/17 03:00:22;;;;;;;1.90;1.80;;;;;;;;;;5089517;28;20683;-45
2023/01/17 03:02:51;;;;;;;2.05;1.95;;;;;;;;;;5092090;28;20166;-46
2023/01/17 03:05:24;;;;;;;2.58;2.38;;;;;;;;;;5083576;28;20178;-47
2023/01/17 03:07:50;;;;;;;2.70;2.50;;;;;;;;;;5082923;28;20599;-48
2023/01/17 03:10:17;;;;;;;1.63;1.52;;;;;;;;;;5083616;28;20177;-46
2023/01/17 03:12:43;;;;;;;1.70;1.60;;;;;;;;;;5087444;28;20178;-47
2023/01/17 03:15:10;;;;;;;1.60;1.50;;;;;;;;;;5088472;28;20174;-46
2023/01/17 03:17:38;;;;;;;1.50;1.40;;;;;;;;;;5085022;28;20790;-47
2023/01/17 03:20:04;;;;;;;1.95;1.70;;;;;;;;;;5087177;28;20254;-44
2023/01/17 03:22:30;;;;;;;2.65;1.40;;;;;;;;;;5089050;28;20170;-45
2023/01/17 03:24:56;;;;;;;1.13;1.13;;;;;;;;;;5090603;28;20676;-48
2023/01/17 03:27:22;;;;;;;1.10;1.10;;;;;;;;;;5090118;28;20416;-46
2023/01/17 03:29:48;;;;;;;9.60;2.13;;;;;;;;;;5080052;28;20600;-47
2023/01/17 03:32:13;;;;;;;1.63;1.53;;;;;;;;;;5086443;28;20416;-46
2023/01/17 03:34:39;;;;;;;1.23;1.23;;;;;;;;;;5088143;28;20491;-47
2023/01/17 03:37:06;;;;;;;1.50;1.40;;;;;;;;;;5091017;28;20503;-45
2023/01/17 03:39:31;;;;;;;1.73;1.63;;;;;;;;;;5086410;28;20848;-46
2023/01/17 03:41:57;;;;;;;1.53;1.43;;;;;;;;;;5087359;28;20209;-47
2023/01/17 03:44:23;;;;;;;3.72;2.47;;;;;;;;;;5084049;28;20434;-46
2023/01/17 03:46:49;;;;;;;3.40;3.10;;;;;;;;;;5087547;28;20193;-46
2023/01/17 03:49:15;;;;;;;3.50;2.77;;;;;;;;;;5089907;28;20472;-46
2023/01/17 03:51:41;;;;;;;3.00;2.70;;;;;;;;;;5091457;28;20456;-46
2023/01/17 03:54:07;;;;;;;4.07;2.70;;;;;;;;;;5092794;28;20441;-46
2023/01/17 03:56:33;;;;;;;8.45;3.28;;;;;;;;;;5080770;28;20455;-46
2023/01/17 03:58:59;;;;;;;7.20;4.10;;;;;;;;;;5088981;28;20206;-46
2023/01/17 04:01:25;;;;;;;4.85;2.95;;;;;;;;;;5091898;28;20406;-45
2023/01/17 04:03:51;;;;;;;4.50;3.60;;;;;;;;;;5090687;28;20538;-47
2023/01/17 04:06:17;;;;;;;6.13;4.07;;;;;;;;;;5087092;28;20418;-46
2023/01/17 04:08:43;;;;;;;5.47;4.30;;;;;;;;;;5086835;28;20829;-46
2023/01/17 04:11:09;;;;;;;3.97;3.57;;;;;;;;;;5088905;28;20401;-48
2023/01/17 04:13:35;;;;;;;4.63;3.70;;;;;;;;;;5092756;28;20488;-46
2023/01/17 04:16:01;;;;;;;4.40;3.70;;;;;;;;;;5094965;28;20459;-46
2023/01/17 04:18:27;;;;;;;5.75;4.15;;;;;;;;;;5091634;28;20432;-46
2023/01/17 04:20:53;;;;;;;9.30;5.40;;;;;;;;;;5093867;28;20204;-46
2023/01/17 04:23:19;;;;;;;5.83;3.97;;;;;;;;;;5095296;28;20173;-45
2023/01/17 04:25:45;;;;;;;4.60;4.10;;;;;;;;;;5096134;28;20413;-46
2023/01/17 04:28:11;;;;;;;6.18;4.60;;;;;;;;;;5085788;28;20696;-47
2023/01/17 04:30:37;;;;;;;5.07;3.60;;;;;;;;;;5086544;28;20172;-46
2023/01/17 04:33:04;;;;;;;4.10;3.47;;;;;;;;;;5086849;28;20657;-46
2023/01/17 04:35:30;;;;;;;8.02;3.45;;;;;;;;;;5090925;28;20221;-45
2023/01/17 04:37:56;;;;;;;3.88;3.58;;;;;;;;;;5089228;28;20681;-46
2023/01/17 04:40:23;;;;;;;5.32;4.25;;;;;;;;;;5087313;28;20186;-46
2023/01/17 04:42:50;;;;;;;5.72;4.43;;;;;;;;;;5089064;28;20193;-48
2023/01/17 04:45:16;;;;;;;6.13;4.95;;;;;;;;;;5090841;28;20177;-46
2023/01/17 04:47:42;;;;;;;5.15;4.07;;;;;;;;;;5092233;28;20208;-46
2023/01/17 04:50:08;;;;;;;4.80;3.53;;;;;;;;;;5094114;28;20173;-44
2023/01/17 04:52:34;;;;;;;3.45;2.90;;;;;;;;;;5086112;28;20485;-46
2023/01/17 04:55:01;;;;;;;10.45;5.32;;;;;;;;;;5084145;28;20175;-46
2023/01/17 04:57:26;;;;;;;9.05;5.07;;;;;;;;;;5084264;28;20246;-47
2023/01/17 04:59:53;;;;;;;16.20;7.40;;;;;;;;;;5090134;28;20621;-46
2023/01/17 05:02:19;;;;;;;9.90;7.25;;;;;;;;;;5084109;28;20779;-46
2023/01/17 05:04:45;;;;;;;7.85;7.05;;;;;;;;;;5094612;28;20557;-46
2023/01/17 05:07:11;;;;;;;11.10;8.13;;;;;;;;;;5090618;28;20198;-46
2023/01/17 05:09:36;;;;;;;8.37;5.17;;;;;;;;;;5085573;28;20396;-43
2023/01/17 05:12:03;;;;;;;13.67;7.47;;;;;;;;;;5084901;28;20904;-46
2023/01/17 05:14:29;;;;;;;9.05;6.90;;;;;;;;;;5089694;28;20412;-46
2023/01/17 05:16:56;;;;;;;12.88;7.80;;;;;;;;;;5087272;28;20616;-45
2023/01/17 05:19:22;;;;;;;13.50;7.53;;;;;;;;;;5085381;28;20266;-43
2023/01/17 05:21:48;;;;;;;13.75;6.53;;;;;;;;;;5086063;28;20554;-44
2023/01/17 05:24:14;;;;;;;9.70;7.07;;;;;;;;;;5087339;28;20220;-44
2023/01/17 05:26:41;;;;;;;7.43;5.90;;;;;;;;;;5084201;28;20253;-44
2023/01/17 05:29:08;;;;;;;10.93;6.80;;;;;;;;;;5084544;28;20205;-47
2023/01/17 05:31:34;;;;;;;16.27;7.07;;;;;;;;;;5091050;28;20174;-47
2023/01/17 05:34:00;;;;;;;11.97;6.67;;;;;;;;;;5092127;28;20204;-44
2023/01/17 05:36:26;;;;;;;9.57;5.53;;;;;;;;;;5089804;28;20455;-44
2023/01/17 05:38:51;;;;;;;8.70;5.50;;;;;;;;;;5086616;28;20633;-44
2023/01/17 05:41:17;;;;;;;7.83;5.03;;;;;;;;;;5084224;28;20411;-44
2023/01/17 05:43:43;;;;;;;5.70;4.67;;;;;;;;;;5084249;28;20400;-44
2023/01/17 05:46:10;;;;;;;14.40;6.30;;;;;;;;;;5084428;28;20465;-44
2023/01/17 05:48:35;;;;;;;8.68;6.07;;;;;;;;;;5083657;28;20424;-44
2023/01/17 05:51:01;;;;;;;7.93;5.67;;;;;;;;;;5084706;28;20186;-44
2023/01/17 05:53:27;;;;;;;5.70;4.35;;;;;;;;;;5088820;28;20896;-45
2023/01/17 05:55:53;;;;;;;8.07;5.60;;;;;;;;;;5084334;28;20208;-46
2023/01/17 05:58:20;;;;;;;11.37;6.27;;;;;;;;;;5087792;28;20428;-44
2023/01/17 06:00:46;;;;;;;10.32;5.88;;;;;;;;;;5091610;28;20785;-43
2023/01/17 06:03:13;;;;;;;8.82;4.90;;;;;;;;;;5083026;28;20243;-44
2023/01/17 06:05:39;;;;;;;6.93;5.47;;;;;;;;;;5079081;28;20174;-44
2023/01/17 06:08:05;;;;;;;7.80;5.83;;;;;;;;;;5089920;28;20208;-45
2023/01/17 06:10:31;;;;;;;9.05;5.55;;;;;;;;;;5087874;28;20420;-44
2023/01/17 06:13:04;;;;;;;12.20;6.32;;;;;;;;;;5088397;28;20177;-44
2023/01/17 06:15:30;;;;;;;9.45;5.70;;;;;;;;;;5090172;28;20197;-43
2023/01/17 06:17:56;;;;;;;13.73;6.90;;;;;;;;;;5083322;28;20197;-44
2023/01/17 06:20:22;;;;;;;9.67;5.87;;;;;;;;;;5083921;28;20193;-44
2023/01/17 06:22:49;;;;;;;25.80;8.43;;;;;;;;;;5087042;28;20401;-44
2023/01/17 06:25:15;;;;;;;15.45;7.20;;;;;;;;;;5082554;28;20481;-44
2023/01/17 06:27:40;;;;;;;10.40;6.90;;;;;;;;;;5085548;28;20190;-44
2023/01/17 06:30:07;;;;;;;9.50;6.73;;;;;;;;;;5087774;28;20173;-46
2023/01/17 06:32:33;;;;;;;8.95;6.63;;;;;;;;;;5087771;28;20436;-43
2023/01/17 06:34:58;;;;;;;10.17;7.03;;;;;;;;;;5083133;28;20209;-44
2023/01/17 06:37:25;;;;;;;9.67;7.20;;;;;;;;;;5086628;28;20518;-45
2023/01/17 06:39:51;;;;;;;11.77;7.68;;;;;;;;;;5088687;28;20454;-45
2023/01/17 06:42:17;;;;;;;10.60;5.93;;;;;;;;;;5083171;28;20194;-47
2023/01/17 06:44:43;;;;;;;13.60;7.13;;;;;;;;;;5086783;28;20389;-44
2023/01/17 06:47:08;;;;;;;14.03;6.90;;;;;;;;;;5081799;28;20427;-43
2023/01/17 06:49:34;;;;;;;15.93;6.87;;;;;;;;;;5086165;28;20771;-44
2023/01/17 06:52:00;;;;;;;14.23;6.87;;;;;;;;;;5087404;28;20416;-44
2023/01/17 06:54:26;;;;;;;17.93;7.27;;;;;;;;;;5088706;28;20515;-44
2023/01/17 06:56:52;;;;;;;11.10;7.53;;;;;;;;;;5089597;28;20494;-44
2023/01/17 06:59:18;;;;;;;10.87;6.70;;;;;;;;;;5090571;28;20520;-44
2023/01/17 07:01:44;;;;;;;12.70;6.57;;;;;;;;;;5083064;28;20487;-45
2023/01/17 07:04:10;;;;;;;10.23;7.00;;;;;;;;;;5082859;28;20429;-47
2023/01/17 07:06:36;;;;;;;12.30;6.57;;;;;;;;;;5086225;28;20497;-44
2023/01/17 07:09:03;;;;;;;12.75;7.32;;;;;;;;;;5087418;28;20467;-43
2023/01/17 07:11:29;;;;;;;11.50;7.68;;;;;;;;;;5083124;28;20185;-47
2023/01/17 07:13:55;;;;;;;14.38;7.20;;;;;;;;;;5083713;28;20181;-47
2023/01/17 07:16:21;;;;;;;14.55;8.50;;;;;;;;;;5085309;28;20456;-43
2023/01/17 07:18:47;;;;;;;12.70;8.43;;;;;;;;;;5086426;28;20182;-43
2023/01/17 07:21:14;;;;;;;14.40;8.80;;;;;;;;;;5091312;28;20507;-43
2023/01/17 07:23:40;;;;;;;12.60;7.80;;;;;;;;;;5086546;28;20423;-47
2023/01/17 07:26:06;;;;;;;16.00;8.25;;;;;;;;;;5087442;28;20594;-47
2023/01/17 07:28:32;;;;;;;16.15;9.00;;;;;;;;;;5077967;28;20198;-44
2023/01/17 07:30:58;;;;;;;14.38;9.48;;;;;;;;;;5080581;28;20171;-44
2023/01/17 07:33:24;;;;;;;19.85;10.15;;;;;;;;;;5091953;28;20231;-45
2023/01/17 07:35:50;;;;;;;15.83;9.83;;;;;;;;;;5087451;28;20684;-46
2023/01/17 07:38:17;;;;;;;21.10;10.43;;;;;;;;;;5090517;28;20508;-44
2023/01/17 07:40:43;;;;;;;21.42;10.93;;;;;;;;;;5088278;28;20483;-44
2023/01/17 07:43:12;;;;;;;22.08;10.88;;;;;;;;;;5088057;28;20178;-44
2023/01/17 07:45:49;;;;;;;18.00;10.15;;;;;;;;;;5089641;28;20588;-44
2023/01/17 07:48:15;;;;;;;21.73;13.05;;;;;;;;;;5085860;28;20220;-43
2023/01/17 07:50:41;;;;;;;19.88;11.52;;;;;;;;;;5086321;28;20224;-43
2023/01/17 07:53:07;;;;;;;16.47;9.57;;;;;;;;;;5086430;28;20206;-46
2023/01/17 07:55:33;;;;;;;17.90;11.20;;;;;;;;;;5081150;28;20456;-43
2023/01/17 07:57:59;;;;;;;20.80;11.32;;;;;;;;;;5083657;28;20194;-43
2023/01/17 08:00:26;;;;;;;20.42;12.30;;;;;;;;;;5091118;28;20262;-44
2023/01/17 08:02:56;;;;;;;18.88;10.52;;;;;;;;;;5088731;28;20166;-43
2023/01/17 08:05:22;;;;;;;17.40;10.90;;;;;;;;;;5084689;28;20227;-43
2023/01/17 08:07:48;;;;;;;18.17;10.07;;;;;;;;;;5085091;28;20189;-43
2023/01/17 08:10:17;;;;;;;23.33;12.10;;;;;;;;;;5086853;28;20760;-42
2023/01/17 08:12:49;;;;;;;25.70;11.07;;;;;;;;;;5089724;28;20207;-43
2023/01/17 08:15:16;;;;;;;22.55;11.05;;;;;;;;;;5083614;28;20235;-43
2023/01/17 08:17:46;;;;;;;26.88;11.05;;;;;;;;;;5088202;28;20206;-44
2023/01/17 08:20:12;;;;;;;23.25;12.50;;;;;;;;;;5090659;28;20187;-46
2023/01/17 08:22:38;;;;;;;20.38;11.70;;;;;;;;;;5085600;28;20173;-45
2023/01/17 08:25:04;;;;;;;24.40;11.53;;;;;;;;;;5090246;28;20181;-46
2023/01/17 08:27:30;;;;;;;19.90;11.55;;;;;;;;;;5082030;28;20792;-47
2023/01/17 08:29:56;;;;;;;19.05;11.65;;;;;;;;;;5089921;28;20377;-43
2023/01/17 08:32:22;;;;;;;19.55;12.27;;;;;;;;;;5091953;28;20586;-43
2023/01/17 08:34:48;;;;;;;22.60;12.38;;;;;;;;;;5094040;28;20193;-43
2023/01/17 08:37:14;;;;;;;24.58;10.75;;;;;;;;;;5092167;28;20684;-43
2023/01/17 08:39:40;;;;;;;27.40;14.30;;;;;;;;;;5089315;28;20182;-43
2023/01/17 08:42:06;;;;;;;22.05;11.82;;;;;;;;;;5090446;28;20838;-43
2023/01/17 08:44:32;;;;;;;19.07;11.63;;;;;;;;;;5089062;28;20216;-44
2023/01/17 08:46:58;;;;;;;21.00;12.30;;;;;;;;;;5090276;28;20811;-43
2023/01/17 08:49:24;;;;;;;23.90;12.88;;;;;;;;;;5092994;28;20463;-43
2023/01/17 08:51:51;;;;;;;20.50;12.23;;;;;;;;;;5092716;28;20172;-46
2023/01/17 08:54:17;;;;;;;22.10;12.70;;;;;;;;;;5083378;28;20431;-44
2023/01/17 08:56:45;;;;;;;18.13;11.48;;;;;;;;;;5088527;28;20201;-43
2023/01/17 08:59:11;;;;;;;17.98;11.30;;;;;;;;;;5088503;28;20597;-46
2023/01/17 09:01:40;;;;;;;25.97;12.30;;;;;;;;;;5090194;28;20173;-43
2023/01/17 09:04:07;;;;;;;20.65;12.90;;;;;;;;;;5092708;28;20411;-44
2023/01/17 09:06:35;;;;;;;25.73;11.63;;;;;;;;;;5084518;28;20185;-46
2023/01/17 09:09:02;;;;;;;17.27;12.57;;;;;;;;;;5084941;28;20818;-44
2023/01/17 09:11:27;;;;;;;17.02;11.00;;;;;;;;;;5085119;28;20157;-44
2023/01/17 09:13:53;;;;;;;24.35;11.95;;;;;;;;;;5093187;28;20547;-43
2023/01/17 09:16:19;;;;;;;15.93;11.00;;;;;;;;;;5084718;28;20226;-47
2023/01/17 09:18:45;;;;;;;29.67;11.57;;;;;;;;;;5086719;28;20803;-43
2023/01/17 09:21:12;;;;;;;18.57;11.30;;;;;;;;;;5090166;28;20423;-43
2023/01/17 09:23:38;;;;;;;25.92;11.38;;;;;;;;;;5088206;28;20431;-44
2023/01/17 09:26:04;;;;;;;19.03;11.23;;;;;;;;;;5088600;28;20673;-44
2023/01/17 09:28:30;;;;;;;15.30;10.50;;;;;;;;;;5089865;28;20430;-46
2023/01/17 09:30:56;;;;;;;23.50;11.73;;;;;;;;;;5085851;28;20561;-46
2023/01/17 09:33:23;;;;;;;18.00;11.10;;;;;;;;;;5091738;28;20400;-43
2023/01/17 09:35:49;;;;;;;19.77;11.73;;;;;;;;;;5084307;28;20443;-48
2023/01/17 09:38:16;;;;;;;21.10;11.00;;;;;;;;;;5081388;28;20217;-43
2023/01/17 09:40:47;;;;;;;36.30;13.63;;;;;;;;;;5087764;28;20458;-43
2023/01/17 09:43:39;;;;;;;16.90;10.25;;;;;;;;;;5089213;28;20200;-44
2023/01/17 09:46:05;;;;;;;14.05;8.57;;;;;;;;;;5085311;28;20200;-43
2023/01/17 09:48:34;;;;;;;15.18;10.63;;;;;;;;;;5083887;28;20200;-43
2023/01/17 09:51:03;;;;;;;24.10;10.32;;;;;;;;;;5086538;28;20181;-46
2023/01/17 09:53:30;;;;;;;12.55;8.77;;;;;;;;;;5088075;28;20575;-44
2023/01/17 09:56:09;;;;;;;17.13;8.38;;;;;;;;;;5086956;28;20217;-45
2023/01/17 09:58:45;;;;;;;13.15;9.13;;;;;;;;;;5082612;28;20205;-44
2023/01/17 10:01:30;;;;;;;17.13;8.07;;;;;;;;;;5092448;28;20416;-43
2023/01/17 10:04:05;;;;;;;17.33;9.45;;;;;;;;;;5083781;28;20169;-43
2023/01/17 10:06:49;;;;;;;14.82;9.73;;;;;;;;;;5083188;28;20169;-49
2023/01/17 10:09:31;;;;;;;18.15;8.90;;;;;;;;;;5081238;28;20272;-45
2023/01/17 10:12:17;;;;;;;19.30;10.35;;;;;;;;;;5071851;28;20172;-43
2023/01/17 10:14:49;;;;;;;15.15;8.95;;;;;;;;;;5071806;28;20178;-43
2023/01/17 10:17:18;;;;;;;18.02;9.55;;;;;;;;;;5089226;28;20204;-43
2023/01/17 10:20:11;;;;;;;13.07;9.90;;;;;;;;;;5091628;28;20250;-44
2023/01/17 10:22:37;;;;;;;14.55;8.50;;;;;;;;;;5092055;28;20174;-43
2023/01/17 10:25:14;;;;;;;16.00;8.80;;;;;;;;;;5091957;28;20518;-43
2023/01/17 10:27:47;;;;;;;14.23;8.80;;;;;;;;;;5090050;28;20513;-43
2023/01/17 10:30:21;;;;;;;15.27;7.68;;;;;;;;;;5081326;28;20177;-44
2023/01/17 10:32:48;;;;;;;12.40;8.80;;;;;;;;;;5091591;28;20178;-46
2023/01/17 10:35:23;;;;;;;14.35;8.95;;;;;;;;;;5091807;28;20177;-43
2023/01/17 10:37:54;;;;;;;16.33;8.67;;;;;;;;;;5087614;28;20225;-43
2023/01/17 10:40:24;;;;;;;12.43;7.53;;;;;;;;;;5072163;28;20381;-43
2023/01/17 10:43:00;;;;;;;12.63;7.57;;;;;;;;;;5091834;28;20395;-43
2023/01/17 10:45:27;;;;;;;12.77;7.87;;;;;;;;;;5091963;28;20414;-46
2023/01/17 10:48:12;;;;;;;9.30;6.73;;;;;;;;;;5089169;28;20428;-45
2023/01/17 10:50:52;;;;;;;14.93;6.63;;;;;;;;;;5073369;28;20458;-43
2023/01/17 10:53:30;;;;;;;7.33;5.90;;;;;;;;;;5086502;28;20405;-43
2023/01/17 10:55:56;;;;;;;6.40;5.77;;;;;;;;;;5091390;28;20534;-43
2023/01/17 10:58:24;;;;;;;8.80;6.10;;;;;;;;;;5090525;28;21009;-43
2023/01/17 11:00:50;;;;;;;10.90;6.77;;;;;;;;;;5091354;28;20461;-43
2023/01/17 11:03:19;;;;;;;7.87;6.00;;;;;;;;;;5091600;28;20422;-45
2023/01/17 11:05:45;;;;;;;6.70;6.00;;;;;;;;;;5091061;28;20480;-46
2023/01/17 11:08:12;;;;;;;7.23;5.93;;;;;;;;;;5092110;28;21005;-43
2023/01/17 11:10:41;;;;;;;6.37;5.47;;;;;;;;;;5094962;28;20412;-45
2023/01/17 11:13:27;;;;;;;8.83;5.70;;;;;;;;;;5086642;28;20915;-45
2023/01/17 11:15:56;;;;;;;8.00;5.70;;;;;;;;;;5067225;28;20481;-44
2023/01/17 11:18:26;;;;;;;10.60;5.83;;;;;;;;;;5087269;28;20424;-43
2023/01/17 11:20:52;;;;;;;13.37;5.63;;;;;;;;;;5089220;28;20431;-45
2023/01/17 11:23:20;;;;;;;10.77;6.73;;;;;;;;;;5086874;28;20803;-45
2023/01/17 11:25:54;;;;;;;16.80;6.43;;;;;;;;;;5086345;28;20407;-45
2023/01/17 11:28:20;;;;;;;12.43;6.50;;;;;;;;;;5087606;28;20438;-45
2023/01/17 11:30:52;;;;;;;7.80;5.77;;;;;;;;;;5089853;28;20409;-45
2023/01/17 11:33:28;;;;;;;10.67;6.00;;;;;;;;;;5093137;28;20407;-45
2023/01/17 11:35:54;;;;;;;8.47;5.40;;;;;;;;;;5082618;28;20451;-45
2023/01/17 11:38:21;;;;;;;13.77;6.07;;;;;;;;;;5090146;28;20481;-45
2023/01/17 11:40:48;;;;;;;13.90;5.50;;;;;;;;;;5086888;28;20407;-45
2023/01/17 11:43:24;;;;;;;9.77;5.70;;;;;;;;;;5087621;28;20977;-45
2023/01/17 11:46:05;;;;;;;5.70;5.20;;;;;;;;;;5085260;28;20460;-45
2023/01/17 11:48:36;;;;;;;10.13;5.97;;;;;;;;;;5089607;28;20427;-45
2023/01/17 11:53:39;;;;;;;8.00;4.97;;;;;;;;;;5465618;22;20530;-45
2023/01/17 11:56:06;;;;;;;8.43;5.30;;;;;;;;;;5048816;28;20465;-45
2023/01/17 11:58:33;;;;;;;8.70;4.93;;;;;;;;;;5054412;28;20458;-45
2023/01/17 12:01:01;;;;;;;10.60;4.47;;;;;;;;;;5054372;28;20414;-45
2023/01/17 12:03:40;;;;;;;9.40;4.70;;;;;;;;;;5055851;28;20435;-45
2023/01/17 12:06:11;;;;;;;7.70;4.47;;;;;;;;;;5054663;28;20419;-45
2023/01/17 12:08:52;;;;;;;6.43;4.50;;;;;;;;;;5049441;28;20403;-47
2023/01/17 12:11:24;;;;;;;11.20;4.37;;;;;;;;;;5042411;28;20964;-49
2023/01/17 12:14:02;;;;;;;9.23;5.27;;;;;;;;;;5045530;28;20951;-48
2023/01/17 12:16:34;;;;;;;9.90;4.23;;;;;;;;;;5052678;28;20456;-48
2023/01/17 12:19:05;;;;;;;5.10;4.07;;;;;;;;;;5053509;28;20413;-48
2023/01/17 12:21:33;;;;;;;11.47;4.97;;;;;;;;;;5050729;28;20403;-47
2023/01/17 12:24:01;;;;;;;6.43;4.07;;;;;;;;;;5052609;28;20430;-46
2023/01/17 12:26:39;;;;;;;8.00;4.30;;;;;;;;;;5054277;28;20473;-47
2023/01/17 12:29:11;;;;;;;10.17;4.60;;;;;;;;;;5045444;28;20416;-46
2023/01/17 12:32:02;;;;;;;11.13;3.50;;;;;;;;;;5052588;28;20843;-46
2023/01/17 12:34:39;;;;;;;5.90;4.40;;;;;;;;;;5051736;28;20447;-46
2023/01/17 12:37:05;;;;;;;8.47;6.53;;;;;;;;;;5048786;28;20463;-49
2023/01/17 12:39:54;;;;;;;7.73;5.90;;;;;;;;;;5053266;28;20415;-47
2023/01/17 12:42:23;;;;;;;11.63;4.37;;;;;;;;;;5035543;28;21075;-47
2023/01/17 12:44:52;;;;;;;9.13;4.63;;;;;;;;;;5050123;28;20780;-48
2023/01/17 12:47:20;;;;;;;12.43;5.50;;;;;;;;;;5052823;28;20938;-47
2023/01/17 12:49:55;;;;;;;10.53;4.40;;;;;;;;;;5052639;28;20852;-46
2023/01/17 12:52:25;;;;;;;6.07;4.20;;;;;;;;;;5048773;28;20411;-48
2023/01/17 12:54:55;;;;;;;9.30;4.80;;;;;;;;;;5050520;28;20414;-48
2023/01/17 12:57:24;;;;;;;6.40;3.87;;;;;;;;;;5052945;28;20551;-48
2023/01/17 13:00:06;;;;;;;6.60;3.90;;;;;;;;;;5051299;28;20461;-48
2023/01/17 13:02:46;;;;;;;8.27;4.50;;;;;;;;;;5049238;28;20461;-46
2023/01/17 13:05:15;;;;;;;5.83;3.70;;;;;;;;;;5045310;28;20965;-46
2023/01/17 13:07:51;;;;;;;11.00;4.57;;;;;;;;;;5040625;28;20901;-46
2023/01/17 13:10:22;;;;;;;7.83;3.87;;;;;;;;;;5039991;28;20502;-47
2023/01/17 13:12:49;;;;;;;6.70;3.73;;;;;;;;;;5050309;28;20470;-45
2023/01/17 13:15:16;;;;;;;4.40;3.63;;;;;;;;;;5052035;28;20456;-46
2023/01/17 13:17:56;;;;;;;7.60;3.30;;;;;;;;;;5050289;28;20464;-46
2023/01/17 13:20:42;;;;;;;8.10;4.00;;;;;;;;;;5048795;28;20508;-46
2023/01/17 13:23:14;;;;;;;11.10;4.33;;;;;;;;;;5044778;28;20442;-46
2023/01/17 13:25:48;;;;;;;9.67;3.70;;;;;;;;;;5052997;28;20420;-47
2023/01/17 13:28:14;;;;;;;4.30;3.53;;;;;;;;;;5045506;28;20880;-46
2023/01/17 13:30:42;;;;;;;4.13;3.83;;;;;;;;;;5051814;28;20444;-47
2023/01/17 13:33:20;;;;;;;8.87;4.13;;;;;;;;;;5048932;28;20474;-47
2023/01/17 13:36:10;;;;;;;8.47;4.83;;;;;;;;;;5046243;28;20472;-47
2023/01/17 13:38:36;;;;;;;7.53;4.57;;;;;;;;;;5052660;28;20494;-47
2023/01/17 13:41:08;;;;;;;8.30;4.53;;;;;;;;;;5052542;28;20494;-48
2023/01/17 13:43:35;;;;;;;12.13;4.47;;;;;;;;;;5049231;28;20940;-48
2023/01/17 13:46:02;;;;;;;13.37;4.07;;;;;;;;;;5052400;28;20410;-45
2023/01/17 13:48:28;;;;;;;10.60;4.13;;;;;;;;;;5052488;28;20421;-47
2023/01/17 13:50:54;;;;;;;13.05;4.45;;;;;;;;;;5050934;28;20262;-47
2023/01/17 13:53:43;;;;;;;4.90;4.00;;;;;;;;;;5045791;28;20266;-45
2023/01/17 13:56:18;;;;;;;6.07;4.00;;;;;;;;;;5041261;28;20461;-47
2023/01/17 13:58:53;;;;;;;10.70;4.45;;;;;;;;;;5052270;28;20231;-46
2023/01/17 14:01:22;;;;;;;9.77;4.45;;;;;;;;;;5047925;28;20163;-46
2023/01/17 14:03:51;;;;;;;9.63;4.15;;;;;;;;;;5051842;28;20201;-48
2023/01/17 14:06:32;;;;;;;8.15;4.05;;;;;;;;;;5044403;28;20232;-48
2023/01/17 14:09:07;;;;;;;5.57;4.63;;;;;;;;;;5050682;28;20282;-49
2023/01/17 14:11:49;;;;;;;5.63;3.90;;;;;;;;;;5052274;28;20466;-48
2023/01/17 14:14:33;;;;;;;9.60;3.50;;;;;;;;;;5039887;28;20432;-49
2023/01/17 14:17:21;;;;;;;11.17;4.20;;;;;;;;;;5051786;28;20468;-46
2023/01/17 14:19:52;;;;;;;4.50;3.13;;;;;;;;;;5044028;28;20993;-49
2023/01/17 14:22:18;;;;;;;14.17;3.80;;;;;;;;;;5050155;28;20812;-49
2023/01/17 14:24:59;;;;;;;3.57;2.90;;;;;;;;;;5051652;28;20401;-45
2023/01/17 14:27:27;;;;;;;5.73;3.13;;;;;;;;;;5050680;28;20416;-45
2023/01/17 14:29:59;;;;;;;10.00;4.13;;;;;;;;;;5051861;28;20423;-45
2023/01/17 14:32:30;;;;;;;3.53;3.23;;;;;;;;;;5031503;28;20987;-45
2023/01/17 14:34:56;;;;;;;5.27;3.33;;;;;;;;;;5049422;28;20447;-45
2023/01/17 14:37:26;;;;;;;4.20;3.60;;;;;;;;;;5051481;28;20514;-45
2023/01/17 14:39:52;;;;;;;7.87;3.20;;;;;;;;;;5051619;28;20412;-45
2023/01/17 14:42:20;;;;;;;3.50;3.10;;;;;;;;;;5051469;28;20445;-45
2023/01/17 14:44:48;;;;;;;10.43;3.87;;;;;;;;;;5051427;28;20420;-45
2023/01/17 14:47:15;;;;;;;4.93;3.57;;;;;;;;;;5051634;28;20427;-45
2023/01/17 14:49:41;;;;;;;5.43;3.30;;;;;;;;;;5050551;28;20420;-45
2023/01/17 14:52:12;;;;;;;13.50;3.50;;;;;;;;;;5031465;28;20443;-45
2023/01/17 14:54:46;;;;;;;4.10;3.67;;;;;;;;;;5031601;28;20428;-45
2023/01/17 14:57:25;;;;;;;5.10;3.80;;;;;;;;;;5031622;28;20972;-45
2023/01/17 14:59:51;;;;;;;3.93;3.10;;;;;;;;;;5031665;28;20444;-46
2023/01/17 15:02:17;;;;;;;16.90;4.43;;;;;;;;;;5031469;28;20422;-44
2023/01/17 15:04:44;;;;;;;8.20;3.20;;;;;;;;;;5031368;28;20411;-45
2023/01/17 15:07:14;;;;;;;5.30;3.07;;;;;;;;;;5030418;28;20418;-45
2023/01/17 15:09:41;;;;;;;4.67;3.17;;;;;;;;;;5031617;28;20465;-45
2023/01/17 15:12:09;;;;;;;8.77;3.80;;;;;;;;;;5031224;28;20454;-44
2023/01/17 15:14:37;;;;;;;9.50;3.47;;;;;;;;;;5031586;28;20413;-45
2023/01/17 15:17:20;;;;;;;4.63;3.75;;;;;;;;;;5031147;28;20464;-45
2023/01/17 15:19:53;;;;;;;5.95;3.25;;;;;;;;;;5031356;28;20192;-45
2023/01/17 15:22:19;;;;;;;10.57;3.85;;;;;;;;;;5030118;28;20187;-45
2023/01/17 15:24:46;;;;;;;8.90;3.80;;;;;;;;;;5041497;28;20181;-45
2023/01/17 15:27:13;;;;;;;12.80;4.05;;;;;;;;;;5041269;28;20611;-44
2023/01/17 15:29:39;;;;;;;9.63;4.10;;;;;;;;;;5037474;28;20183;-45
2023/01/17 15:32:06;;;;;;;11.25;4.35;;;;;;;;;;5049585;28;20259;-45
2023/01/17 15:34:32;;;;;;;8.80;4.88;;;;;;;;;;5049560;28;20182;-43
2023/01/17 15:37:01;;;;;;;6.03;4.55;;;;;;;;;;5048379;28;20674;-44
2023/01/17 15:39:33;;;;;;;7.78;4.57;;;;;;;;;;5050956;28;20229;-43
2023/01/17 15:42:01;;;;;;;8.63;5.07;;;;;;;;;;5050423;28;20171;-47
2023/01/17 15:44:29;;;;;;;7.07;4.75;;;;;;;;;;5043122;28;20256;-43
2023/01/17 15:46:56;;;;;;;11.07;4.85;;;;;;;;;;5049764;28;20182;-42
2023/01/17 15:49:23;;;;;;;6.75;4.80;;;;;;;;;;5048157;28;20210;-43
2023/01/17 15:51:51;;;;;;;10.52;5.60;;;;;;;;;;5050418;28;20186;-43
2023/01/17 15:54:31;;;;;;;11.63;5.10;;;;;;;;;;5050242;28;20186;-43
2023/01/17 15:57:20;;;;;;;7.65;3.90;;;;;;;;;;5053127;28;20572;-43
2023/01/17 15:59:58;;;;;;;8.50;3.85;;;;;;;;;;5049021;28;20192;-42
2023/01/17 16:02:41;;;;;;;8.02;3.67;;;;;;;;;;5054206;28;20163;-45
2023/01/17 16:05:32;;;;;;;11.27;3.90;;;;;;;;;;5054466;28;20220;-43
2023/01/17 16:08:18;;;;;;;13.70;4.00;;;;;;;;;;5053289;28;20171;-42
2023/01/17 16:10:44;;;;;;;4.88;3.65;;;;;;;;;;5033222;28;20214;-43
2023/01/17 16:13:12;;;;;;;11.98;4.47;;;;;;;;;;5053740;28;20198;-43